createdAt,value
2022-12-17T00:00:27.699Z,52.20
2022-12-17T00:03:17.824Z,54.33
2022-12-17T00:06:03.382Z,50.65
2022-12-17T00:08:49.018Z,55.38
2022-12-17T00:11:34.239Z,52.38
2022-12-17T00:14:19.017Z,55.47
2022-12-17T00:17:03.986Z,55.40
2022-12-17T00:19:48.927Z,50.90
2022-12-17T00:22:34.110Z,55.07
2022-12-17T00:25:19.112Z,55.47
2022-12-17T00:28:04.266Z,49.67
2022-12-17T00:30:49.446Z,50.97
2022-12-17T00:33:35.486Z,57.03
2022-12-17T00:36:20.888Z,56.50
2022-12-17T00:39:05.835Z,50.97
2022-12-17T00:41:51.088Z,52.20
2022-12-17T00:44:36.217Z,56.53
2022-12-17T00:47:21.035Z,56.97
2022-12-17T00:50:07.145Z,57.70
2022-12-17T00:52:52.383Z,56.67
2022-12-17T00:55:37.441Z,51.78
2022-12-17T00:58:22.231Z,53.47
2022-12-17T01:01:07.182Z,52.65
2022-12-17T01:03:52.316Z,57.90
2022-12-17T01:06:37.418Z,49.95
2022-12-17T01:09:22.533Z,55.63
2022-12-17T01:12:07.232Z,55.88
2022-12-17T01:14:52.442Z,55.92
2022-12-17T01:17:37.586Z,56.90
2022-12-17T01:20:23.051Z,53.90
2022-12-17T01:23:08.035Z,52.75
2022-12-17T01:25:52.979Z,57.10
2022-12-17T01:28:43.366Z,54.30
2022-12-17T01:31:34.629Z,48.55
2022-12-17T01:34:20.153Z,50.72
2022-12-17T01:37:05.988Z,52.22
2022-12-17T01:39:51.206Z,52.97
2022-12-17T01:42:36.135Z,53.58
2022-12-17T01:45:32.262Z,53.05
2022-12-17T01:48:21.404Z,55.38
2022-12-17T01:51:11.700Z,54.92
2022-12-17T01:54:01.621Z,56.20
2022-12-17T01:56:47.370Z,56.17
2022-12-17T01:59:33.440Z,60.05
2022-12-17T02:02:19.020Z,55.67
2022-12-17T02:05:04.244Z,53.40
2022-12-17T02:08:08.414Z,56.60
2022-12-17T02:11:15.799Z,61.53
2022-12-17T02:14:12.189Z,56.22
2022-12-17T02:17:05.548Z,56.75
2022-12-17T02:19:56.765Z,55.33
2022-12-17T02:22:57.131Z,53.95
2022-12-17T02:26:08.191Z,56.10
2022-12-17T02:28:57.933Z,55.08
2022-12-17T02:31:45.047Z,55.60
2022-12-17T02:34:30.458Z,59.78
2022-12-17T02:37:15.852Z,56.55
2022-12-17T02:40:01.520Z,57.83
2022-12-17T02:42:50.139Z,56.60
2022-12-17T02:45:36.534Z,59.55
2022-12-17T02:48:23.085Z,62.58
2022-12-17T02:51:08.447Z,54.53
2022-12-17T02:53:53.774Z,53.97
2022-12-17T02:56:40.645Z,52.22
2022-12-17T02:59:25.724Z,55.63
2022-12-17T03:02:11.878Z,59.40
2022-12-17T03:05:10.504Z,50.63
2022-12-17T03:08:02.797Z,57.15
2022-12-17T03:10:47.753Z,57.85
2022-12-17T03:13:44.089Z,58.50
2022-12-17T03:16:37.098Z,56.63
2022-12-17T03:19:22.735Z,58.40
2022-12-17T03:22:07.515Z,54.63
2022-12-17T03:24:52.624Z,60.72
2022-12-17T03:27:39.445Z,55.85
2022-12-17T03:30:24.834Z,60.08
2022-12-17T03:33:09.921Z,58.80
2022-12-17T03:35:54.943Z,55.97
2022-12-17T03:38:39.820Z,58.83
2022-12-17T03:41:27.002Z,52.90
2022-12-17T03:44:11.999Z,52.15
2022-12-17T03:46:56.920Z,60.53
2022-12-17T03:49:41.663Z,56.35
2022-12-17T03:52:26.580Z,58.83
2022-12-17T03:55:11.297Z,61.70
2022-12-17T03:57:56.321Z,61.58
2022-12-17T04:00:41.567Z,58.42
2022-12-17T04:03:26.276Z,66.03
2022-12-17T04:06:11.368Z,58.65
2022-12-17T04:08:56.248Z,69.15
2022-12-17T04:11:41.220Z,62.90
2022-12-17T04:14:26.307Z,65.47
2022-12-17T04:17:12.671Z,70.18
2022-12-17T04:19:57.561Z,63.72
2022-12-17T04:22:42.470Z,67.18
2022-12-17T04:25:27.370Z,67.40
2022-12-17T04:28:12.334Z,62.80
2022-12-17T04:30:57.347Z,62.90
2022-12-17T04:33:52.973Z,60.67
2022-12-17T04:36:37.892Z,67.00
2022-12-17T04:39:22.878Z,59.45
2022-12-17T04:42:07.997Z,65.70
2022-12-17T04:44:52.691Z,61.92
2022-12-17T04:47:37.747Z,65.80
2022-12-17T04:50:23.443Z,67.45
2022-12-17T04:53:08.358Z,65.63
2022-12-17T04:55:53.125Z,70.88
2022-12-17T04:58:38.220Z,69.15
2022-12-17T05:01:23.471Z,67.00
2022-12-17T05:04:08.576Z,76.10
2022-12-17T05:06:53.656Z,70.78
2022-12-17T05:09:38.484Z,75.93
2022-12-17T05:12:23.784Z,74.63
2022-12-17T05:15:08.608Z,72.60
2022-12-17T05:17:53.375Z,81.32
2022-12-17T05:20:38.151Z,78.05
2022-12-17T05:23:26.888Z,69.22
2022-12-17T05:26:24.307Z,74.03
2022-12-17T05:29:15.451Z,77.72
2022-12-17T05:32:00.780Z,74.72
2022-12-17T05:34:46.006Z,78.35
2022-12-17T05:37:31.094Z,79.47
2022-12-17T05:40:16.233Z,70.47
2022-12-17T05:43:01.095Z,75.57
2022-12-17T05:45:46.027Z,79.78
2022-12-17T05:48:31.075Z,77.33
2022-12-17T05:51:15.948Z,77.18
2022-12-17T05:54:00.875Z,78.35
2022-12-17T05:56:45.736Z,75.27
2022-12-17T05:59:30.648Z,66.35
2022-12-17T06:02:15.747Z,75.97
2022-12-17T06:05:02.524Z,71.85
2022-12-17T06:07:48.167Z,72.72
2022-12-17T06:10:33.039Z,73.80
2022-12-17T06:13:17.976Z,70.25
2022-12-17T06:16:08.019Z,70.03
2022-12-17T06:18:54.159Z,76.25
2022-12-17T06:21:40.301Z,73.40
2022-12-17T06:24:25.412Z,66.70
2022-12-17T06:27:10.988Z,70.55
2022-12-17T06:29:56.417Z,78.13
2022-12-17T06:32:41.619Z,62.25
2022-12-17T06:35:26.911Z,78.07
2022-12-17T06:38:24.490Z,70.50
2022-12-17T06:41:12.462Z,72.57
2022-12-17T06:43:57.507Z,68.25
2022-12-17T06:46:42.439Z,74.20
2022-12-17T06:49:27.560Z,72.50
2022-12-17T06:52:14.739Z,83.60
2022-12-17T06:55:16.471Z,84.65
2022-12-17T06:58:01.796Z,75.40
2022-12-17T07:00:47.089Z,71.03
2022-12-17T07:03:32.349Z,73.57
2022-12-17T07:06:20.478Z,72.13
2022-12-17T07:09:05.688Z,69.70
2022-12-17T07:11:51.032Z,80.88
2022-12-17T07:14:36.183Z,78.50
2022-12-17T07:17:21.371Z,75.68
2022-12-17T07:20:06.477Z,70.38
2022-12-17T07:22:52.752Z,75.47
2022-12-17T07:25:41.616Z,70.55
2022-12-17T07:28:30.680Z,72.07
2022-12-17T07:31:16.045Z,71.93
2022-12-17T07:34:01.200Z,74.32
2022-12-17T07:36:45.931Z,68.47
2022-12-17T07:39:30.874Z,72.55
2022-12-17T07:42:16.026Z,67.57
2022-12-17T07:45:01.124Z,73.60
2022-12-17T07:47:46.049Z,68.32
2022-12-17T07:50:30.877Z,73.43
2022-12-17T07:53:23.826Z,67.22
2022-12-17T07:56:10.297Z,69.45
2022-12-17T07:58:55.454Z,64.32
2022-12-17T08:01:40.812Z,69.20
2022-12-17T08:04:45.694Z,66.18
2022-12-17T08:07:30.719Z,72.63
2022-12-17T08:10:15.685Z,68.55
2022-12-17T08:13:00.516Z,69.70
2022-12-17T08:15:45.695Z,67.47
2022-12-17T08:18:30.759Z,67.80
2022-12-17T08:21:15.907Z,73.07
2022-12-17T08:24:01.006Z,69.55
2022-12-17T08:26:48.197Z,67.57
2022-12-17T08:29:33.971Z,72.63
2022-12-17T08:32:29.803Z,65.72
2022-12-17T08:35:14.744Z,68.55
2022-12-17T08:38:00.054Z,73.90
2022-12-17T08:40:44.921Z,67.95
2022-12-17T08:43:29.975Z,66.88
2022-12-17T08:46:15.135Z,71.53
2022-12-17T08:49:00.412Z,71.90
2022-12-17T08:51:51.262Z,73.03
2022-12-17T08:54:36.040Z,77.28
2022-12-17T08:57:31.456Z,76.95
2022-12-17T09:03:02.647Z,67.53
2022-12-17T09:05:59.459Z,72.25
2022-12-17T09:08:44.354Z,68.63
2022-12-17T09:11:29.453Z,72.32
2022-12-17T09:14:14.372Z,74.25
2022-12-17T09:16:59.536Z,68.43
2022-12-17T09:19:44.729Z,66.45
2022-12-17T09:22:29.592Z,65.68
2022-12-17T09:25:14.804Z,68.60
2022-12-17T09:27:59.563Z,64.57
2022-12-17T09:30:45.025Z,68.90
2022-12-17T09:33:35.432Z,66.70
2022-12-17T09:36:24.937Z,69.00
2022-12-17T09:39:20.706Z,68.53
2022-12-17T09:42:50.494Z,66.78
2022-12-17T09:45:44.058Z,66.88
2022-12-17T09:48:41.630Z,66.53
2022-12-17T09:51:53.236Z,66.22
2022-12-17T09:54:46.811Z,66.05
2022-12-17T09:57:36.881Z,66.03
2022-12-17T10:00:42.398Z,69.28
2022-12-17T10:03:31.692Z,65.60
2022-12-17T10:06:23.046Z,67.78
2022-12-17T10:09:16.811Z,70.38
2022-12-17T10:12:02.520Z,64.93
2022-12-17T10:14:47.818Z,66.65
2022-12-17T10:17:36.287Z,68.85
2022-12-17T10:20:23.047Z,67.55
2022-12-17T10:23:09.082Z,67.80
2022-12-17T10:25:54.567Z,66.28
2022-12-17T10:28:43.486Z,69.57
2022-12-17T10:31:29.990Z,65.43
2022-12-17T10:34:15.774Z,63.00
2022-12-17T10:37:07.234Z,66.85
2022-12-17T10:39:52.657Z,67.03
2022-12-17T10:42:38.590Z,63.38
2022-12-17T10:48:44.700Z,62.63
2022-12-17T10:51:43.258Z,64.47
2022-12-17T10:54:42.610Z,67.45
2022-12-17T10:57:52.000Z,63.28
2022-12-17T11:00:36.855Z,64.13
2022-12-17T11:03:22.852Z,68.00
2022-12-17T11:06:13.134Z,63.17
2022-12-17T11:08:59.755Z,63.53
2022-12-17T11:11:45.127Z,64.63
2022-12-17T11:14:32.453Z,66.45
2022-12-17T11:17:23.238Z,66.07
2022-12-17T11:20:26.451Z,61.33
2022-12-17T11:23:14.989Z,68.45
2022-12-17T11:26:22.997Z,63.88
2022-12-17T11:29:08.484Z,63.63
2022-12-17T11:32:27.892Z,62.97
2022-12-17T11:35:25.956Z,63.55
2022-12-17T11:38:40.445Z,60.63
2022-12-17T11:41:37.053Z,64.25
2022-12-17T11:44:32.390Z,65.50
2022-12-17T11:47:56.117Z,67.20
2022-12-17T11:50:50.711Z,65.68
2022-12-17T11:53:35.528Z,69.15
2022-12-17T11:56:45.436Z,72.45
2022-12-17T11:59:39.765Z,64.75
2022-12-17T12:02:43.651Z,66.22
2022-12-17T12:06:05.601Z,68.28
2022-12-17T12:08:59.613Z,66.47
2022-12-17T12:11:55.444Z,64.45
2022-12-17T12:15:03.715Z,64.60
2022-12-17T12:18:11.291Z,67.10
2022-12-17T12:21:05.753Z,64.00
2022-12-17T12:24:02.610Z,65.93
2022-12-17T12:27:07.047Z,63.67
2022-12-17T12:30:08.319Z,63.90
2022-12-17T12:33:40.068Z,64.15
2022-12-17T12:36:30.130Z,64.20
2022-12-17T12:39:18.845Z,66.28
2022-12-17T12:42:13.779Z,63.58
2022-12-17T12:45:22.736Z,59.00
2022-12-17T12:48:15.459Z,56.15
2022-12-17T12:51:09.084Z,57.33
2022-12-17T12:53:53.886Z,60.28
2022-12-17T12:56:46.075Z,61.88
2022-12-17T12:59:43.208Z,60.42
2022-12-17T13:02:51.646Z,61.05
2022-12-17T13:05:34.460Z,56.60
2022-12-17T13:08:10.048Z,58.72
2022-12-17T13:13:17.344Z,55.10
2022-12-17T13:16:17.202Z,56.97
2022-12-17T13:18:43.741Z,53.28
2022-12-17T13:21:16.286Z,57.00
2022-12-17T13:23:43.909Z,64.50
2022-12-17T13:26:20.268Z,56.30
2022-12-17T13:29:03.288Z,54.15
2022-12-17T13:31:52.012Z,62.13
2022-12-17T13:34:39.801Z,59.17
2022-12-17T13:37:17.970Z,58.08
2022-12-17T13:39:57.717Z,62.67
2022-12-17T13:42:32.368Z,59.55
2022-12-17T13:44:59.465Z,62.05
2022-12-17T13:47:28.216Z,56.00
2022-12-17T13:50:32.823Z,57.58
2022-12-17T13:52:43.660Z,58.10
2022-12-17T13:55:19.493Z,57.42
2022-12-17T13:57:46.693Z,58.55
2022-12-17T14:00:31.149Z,60.67
2022-12-17T14:02:58.077Z,59.00
2022-12-17T14:05:37.364Z,54.95
2022-12-17T14:08:05.403Z,60.83
2022-12-17T14:10:32.744Z,58.65
2022-12-17T14:13:07.175Z,61.30
2022-12-17T14:15:34.619Z,54.85
2022-12-17T14:18:02.311Z,61.78
2022-12-17T14:20:35.311Z,62.03
2022-12-17T14:23:11.003Z,63.75
2022-12-17T14:25:39.934Z,61.95
2022-12-17T14:28:30.031Z,68.85
2022-12-17T14:34:11.840Z,57.90
2022-12-17T14:36:41.769Z,60.55
2022-12-17T14:39:28.960Z,58.70
2022-12-17T14:42:25.914Z,58.70
2022-12-17T14:45:20.465Z,59.25
2022-12-17T14:48:01.272Z,60.92
2022-12-17T14:50:34.496Z,61.65
2022-12-17T14:53:22.734Z,57.67
2022-12-17T14:55:57.278Z,63.45
2022-12-17T14:58:25.689Z,61.37
2022-12-17T15:01:09.145Z,61.15
2022-12-17T15:03:44.150Z,65.07
2022-12-17T15:06:15.276Z,66.75
2022-12-17T15:08:47.282Z,60.33
2022-12-17T15:11:17.104Z,61.28
2022-12-17T15:13:44.195Z,62.45
2022-12-17T15:16:13.567Z,61.00
2022-12-17T15:18:40.409Z,62.42
2022-12-17T15:21:10.000Z,62.38
2022-12-17T15:23:40.961Z,61.00
2022-12-17T15:26:09.699Z,62.83
2022-12-17T15:28:36.734Z,64.53
2022-12-17T15:31:03.790Z,59.47
2022-12-17T15:33:30.715Z,62.03
2022-12-17T15:35:58.307Z,65.68
2022-12-17T15:38:24.868Z,58.20
2022-12-17T15:40:51.366Z,54.53
2022-12-17T15:43:18.103Z,59.35
2022-12-17T15:45:49.640Z,60.08
2022-12-17T15:48:19.363Z,58.35
2022-12-17T15:50:47.114Z,60.92
2022-12-17T15:53:14.385Z,63.60
2022-12-17T15:55:41.324Z,61.40
2022-12-17T15:58:10.550Z,64.50
2022-12-17T16:00:37.794Z,60.38
2022-12-17T16:03:04.432Z,62.60
2022-12-17T16:05:31.042Z,62.47
2022-12-17T16:08:02.015Z,59.80
2022-12-17T16:10:28.700Z,70.13
2022-12-17T16:12:55.152Z,71.28
2022-12-17T16:15:21.681Z,65.45
2022-12-17T16:17:48.183Z,71.45
2022-12-17T16:20:14.674Z,74.78
2022-12-17T16:22:41.591Z,74.55
2022-12-17T16:25:08.661Z,65.03
2022-12-17T16:27:35.294Z,72.55
2022-12-17T16:30:03.260Z,81.13
2022-12-17T16:32:35.959Z,74.25
2022-12-17T16:35:04.717Z,75.35
2022-12-17T16:37:31.386Z,79.35
2022-12-17T16:40:00.206Z,77.95
2022-12-17T16:42:27.330Z,79.45
2022-12-17T16:44:53.857Z,78.28
2022-12-17T16:47:20.432Z,78.20
2022-12-17T16:49:50.173Z,68.82
2022-12-17T16:52:16.702Z,74.53
2022-12-17T16:54:43.227Z,77.15
2022-12-17T16:57:09.727Z,76.95
2022-12-17T16:59:36.260Z,76.55
2022-12-17T17:02:03.055Z,81.47
2022-12-17T17:04:29.832Z,87.15
2022-12-17T17:06:57.556Z,83.88
2022-12-17T17:09:25.658Z,76.75
2022-12-17T17:11:56.868Z,81.63
2022-12-17T17:14:24.046Z,87.55
2022-12-17T17:16:51.079Z,82.63
2022-12-17T17:19:18.533Z,81.05
2022-12-17T17:21:51.706Z,80.32
2022-12-17T17:24:22.085Z,79.22
2022-12-17T17:26:50.549Z,82.70
2022-12-17T17:29:17.263Z,83.95
2022-12-17T17:32:09.133Z,69.05
2022-12-17T17:34:30.220Z,78.05
2022-12-17T17:36:56.678Z,72.72
2022-12-17T17:39:23.259Z,64.53
2022-12-17T17:41:49.879Z,65.82
2022-12-17T17:44:16.509Z,66.82
2022-12-17T17:46:43.347Z,73.38
2022-12-17T17:49:10.531Z,88.40
2022-12-17T17:54:28.113Z,71.15
2022-12-17T17:56:55.415Z,70.13
2022-12-17T17:59:29.202Z,93.07
2022-12-17T18:02:00.212Z,68.68
2022-12-17T18:04:26.972Z,71.22
2022-12-17T18:07:23.806Z,80.38
2022-12-17T18:09:39.970Z,63.60
2022-12-17T18:12:25.602Z,64.75
2022-12-17T18:17:39.255Z,75.32
2022-12-17T18:20:06.394Z,73.53
2022-12-17T18:22:32.954Z,74.28
2022-12-17T18:24:59.515Z,63.95
2022-12-17T18:27:26.005Z,83.40
2022-12-17T18:29:52.596Z,86.18
2022-12-17T18:32:19.248Z,87.13
2022-12-17T18:34:45.841Z,74.45
2022-12-17T18:37:12.365Z,79.47
2022-12-17T18:39:38.923Z,79.15
2022-12-17T18:42:24.252Z,71.05
2022-12-17T18:44:50.745Z,72.97
2022-12-17T18:47:18.710Z,69.32
2022-12-17T18:49:45.389Z,81.22
2022-12-17T18:52:16.468Z,82.45
2022-12-17T18:54:43.827Z,64.97
2022-12-17T18:57:10.830Z,76.18
2022-12-17T18:59:37.479Z,62.22
2022-12-17T19:02:04.550Z,65.65
2022-12-17T19:04:32.963Z,112.60
2022-12-17T19:06:59.798Z,89.40
2022-12-17T19:09:29.127Z,67.80
2022-12-17T19:11:56.940Z,78.68
2022-12-17T19:14:25.093Z,58.65
2022-12-17T19:16:54.338Z,73.95
2022-12-17T19:19:21.842Z,69.95
2022-12-17T19:21:48.831Z,69.05
2022-12-17T19:24:18.256Z,66.88
2022-12-17T19:26:45.917Z,61.70
2022-12-17T19:29:14.407Z,58.90
2022-12-17T19:31:41.282Z,70.13
2022-12-17T19:34:11.172Z,72.80
2022-12-17T19:36:39.369Z,60.00
2022-12-17T19:39:08.949Z,73.93
2022-12-17T19:41:35.576Z,66.35
2022-12-17T19:44:05.104Z,62.47
2022-12-17T19:46:33.177Z,68.18
2022-12-17T19:49:00.007Z,70.80
2022-12-17T19:51:29.421Z,64.25
2022-12-17T19:53:56.348Z,66.72
2022-12-17T19:56:30.501Z,71.88
2022-12-17T19:59:02.169Z,64.90
2022-12-17T20:01:33.981Z,72.88
2022-12-17T20:04:01.066Z,69.30
2022-12-17T20:06:32.051Z,75.72
2022-12-17T20:08:59.784Z,71.20
2022-12-17T20:11:32.903Z,69.68
2022-12-17T20:14:08.540Z,68.10
2022-12-17T20:16:41.528Z,65.07
2022-12-17T20:19:11.672Z,61.80
2022-12-17T20:21:38.698Z,60.85
2022-12-17T20:24:05.805Z,59.97
2022-12-17T20:26:33.177Z,59.22
2022-12-17T20:29:00.137Z,65.95
2022-12-17T20:31:28.051Z,59.95
2022-12-17T20:33:54.907Z,63.95
2022-12-17T20:36:22.559Z,59.38
2022-12-17T20:38:49.678Z,63.47
2022-12-17T20:41:24.560Z,57.20
2022-12-17T20:43:51.744Z,60.85
2022-12-17T20:46:19.707Z,57.75
2022-12-17T20:48:46.765Z,58.45
2022-12-17T20:51:16.903Z,57.05
2022-12-17T20:53:44.952Z,58.92
2022-12-17T20:56:14.921Z,59.33
2022-12-17T20:58:42.636Z,60.92
2022-12-17T21:01:19.029Z,65.35
2022-12-17T21:03:47.216Z,57.20
2022-12-17T21:06:16.628Z,58.35
2022-12-17T21:08:49.280Z,62.10
2022-12-17T21:11:24.778Z,65.20
2022-12-17T21:13:51.826Z,63.53
2022-12-17T21:16:21.428Z,59.53
2022-12-17T21:18:48.346Z,59.97
2022-12-17T21:21:20.747Z,60.08
2022-12-17T21:23:48.559Z,59.47
2022-12-17T21:26:18.477Z,56.80
2022-12-17T21:28:47.127Z,61.78
2022-12-17T21:31:22.503Z,56.47
2022-12-17T21:33:50.724Z,59.10
2022-12-17T21:36:19.988Z,59.10
2022-12-17T21:38:47.337Z,55.40
2022-12-17T21:41:16.879Z,58.47
2022-12-17T21:43:43.861Z,54.70
2022-12-17T21:46:11.704Z,51.90
2022-12-17T21:48:42.096Z,62.20
2022-12-17T21:51:11.889Z,61.72
2022-12-17T21:53:42.647Z,65.22
2022-12-17T21:56:12.735Z,60.83
2022-12-17T21:58:40.826Z,62.00
2022-12-17T22:01:22.142Z,60.08
2022-12-17T22:03:54.013Z,58.22
2022-12-17T22:06:25.089Z,61.70
2022-12-17T22:09:01.703Z,52.67
2022-12-17T22:11:40.740Z,55.83
2022-12-17T22:14:16.994Z,59.17
2022-12-17T22:16:49.458Z,57.05
2022-12-17T22:19:23.137Z,60.50
2022-12-17T22:21:51.466Z,55.55
2022-12-17T22:24:25.363Z,58.67
2022-12-17T22:26:59.491Z,58.85
2022-12-17T22:29:48.287Z,59.05
2022-12-17T22:32:33.024Z,54.97
2022-12-17T22:35:45.759Z,60.95
2022-12-17T22:42:47.840Z,54.72
2022-12-17T22:44:30.853Z,57.22
2022-12-17T22:44:45.731Z,57.90
2022-12-17T22:46:16.835Z,59.60
2022-12-17T22:48:43.493Z,60.42
2022-12-17T22:51:13.544Z,61.03
2022-12-17T22:53:45.149Z,57.00
2022-12-17T22:56:27.768Z,59.72
2022-12-17T22:58:59.397Z,60.42
2022-12-17T23:01:26.656Z,61.78
2022-12-17T23:03:57.863Z,57.40
2022-12-17T23:06:24.691Z,60.08
2022-12-17T23:08:51.519Z,61.80
2022-12-17T23:11:26.848Z,60.47
2022-12-17T23:16:21.480Z,60.63
2022-12-17T23:18:49.583Z,65.18
2022-12-17T23:21:19.236Z,57.88
2022-12-17T23:23:46.132Z,56.20
2022-12-17T23:26:18.688Z,65.63
2022-12-17T23:28:46.277Z,58.28
2022-12-17T23:31:17.640Z,57.80
2022-12-17T23:33:44.861Z,66.57
2022-12-17T23:36:14.628Z,56.90
2022-12-17T23:38:41.238Z,57.70
2022-12-17T23:41:10.913Z,62.90
2022-12-17T23:43:38.570Z,62.08
2022-12-17T23:46:07.064Z,58.00
2022-12-17T23:48:40.763Z,64.28
2022-12-17T23:51:14.122Z,55.13
2022-12-17T23:53:42.004Z,53.65
2022-12-17T23:56:19.665Z,51.38
2022-12-17T23:58:47.784Z,57.85
